Terminal Aerodrome Forecast
Issued by NWS Duluth, MN

Home | Current Version | Previous Version | Text Only | Print | Product List | Glossary On
Versions: 1 2 3 4 5 6 7 8 9 10 11 12 13 14 15 16 17 18 19
323
FTUS43 KDLH 180520
TAFDLH
TAF
KDLH 180520Z 1806/1906 34008KT 5SM BR BKN015
     FM181500 33010G17KT P6SM SCT035
     FM182000 31013G19KT P6SM BKN035=

USA.gov is the U.S. government's official web portal to all federal, state and local government web resources and services.